Oregon House, California
Current Conditions -  °F | °C
As of 11:58 AM on Thursday 30 Oct 2014 (Local Time) from KBAB Reporting Station
Scattered Clouds Scattered Clouds  
Wind Chill: 72°   Ceiling: Unl
Heat Index: 72°   Visibility: 10mi
Dew Point: 48°   Wind: 6mph
Humidity: 43%   Direction: 180°S
Pressure: 29.93"   Gusts: NA
Location:  39.36°N, 121.28°W
Report Text: KBAB 301858Z AUTO 18005KT 10SM SCT240 22/09 A2993 RMK AO2 SLP210 T02220090 $
Loading
Personal Weather Stations






























Interactive Weather Map
Tropical Storm Tracking
New forecast layout! Learn more

10-Day Weather Forecast

Advertisements
Track Severe Weather on mobile